Time,TemperatureF,DewpointF,PressureIn,WindDirection,WindDirectionDegrees,WindSpeedMPH,WindSpeedGustMPH,Humidity,HourlyPrecipIn,Conditions,Clouds,dailyrainin,SoftwareType,DateUTC
2013-07-17 00:06:00,0.0,0.0,0.00,ESE,112,5.4,5.4,0,0.00,,,-99.99,Homeseer,2013-07-17 04:06:00,
2013-07-17 00:16:00,0.0,0.0,0.00,SSE,157,4.9,7.8,0,0.00,,,-99.99,Homeseer,2013-07-17 04:16:00,
2013-07-17 00:26:00,0.0,0.0,0.00,ESE,112,3.6,3.8,0,0.00,,,-99.99,Homeseer,2013-07-17 04:26:00,
2013-07-17 00:36:00,0.0,0.0,0.00,ESE,112,6.0,6.0,0,0.00,,,-99.99,Homeseer,2013-07-17 04:36:00,
2013-07-17 00:46:00,0.0,0.0,0.00,South,180,6.0,7.8,0,0.00,,,-99.99,Homeseer,2013-07-17 04:46:00,
2013-07-17 00:56:00,0.0,0.0,0.00,SE,135,3.8,5.6,0,0.00,,,-99.99,Homeseer,2013-07-17 04:56:00,
2013-07-17 01:06:00,0.0,0.0,0.00,SSE,157,4.9,4.9,0,0.00,,,-99.99,Homeseer,2013-07-17 05:06:00,
2013-07-17 01:16:00,0.0,0.0,0.00,South,180,7.6,7.6,0,0.00,,,-99.99,Homeseer,2013-07-17 05:16:00,
2013-07-17 01:26:00,74.8,70.7,0.00,North,0,7.4,7.4,84,1.57,,,-99.99,Homeseer,2013-07-17 05:26:00,
2013-07-17 01:36:00,74.8,70.7,0.00,SSE,157,2.9,2.9,84,2.83,,,-99.99,Homeseer,2013-07-17 05:36:00,
2013-07-17 01:46:00,74.8,70.7,0.00,SSE,157,2.5,2.5,84,0.98,,,-99.99,Homeseer,2013-07-17 05:46:00,
2013-07-17 01:56:00,74.8,70.7,0.00,SE,135,1.6,2.5,84,0.98,,,-99.99,Homeseer,2013-07-17 05:56:00,
2013-07-17 02:06:00,74.8,70.7,0.00,ESE,112,1.1,3.4,84,0.98,,,-99.99,Homeseer,2013-07-17 06:06:00,
2013-07-17 02:16:00,74.8,70.7,0.00,ESE,112,1.6,1.6,84,0.98,,,-99.99,Homeseer,2013-07-17 06:16:00,
2013-07-17 02:26:00,0.0,0.0,0.00,ESE,112,2.2,2.5,0,0.98,,,-99.99,Homeseer,2013-07-17 06:26:00,
2013-07-17 02:36:00,0.0,0.0,0.00,South,180,2.2,2.5,0,0.98,,,-99.99,Homeseer,2013-07-17 06:36:00,
2013-07-17 02:46:00,0.0,0.0,0.00,ESE,112,3.1,3.1,0,0.98,,,-99.99,Homeseer,2013-07-17 06:46:00,
2013-07-17 02:56:00,0.0,0.0,0.00,ESE,112,2.2,3.4,0,0.98,,,-99.99,Homeseer,2013-07-17 06:56:00,
2013-07-17 03:06:00,0.0,0.0,0.00,ESE,112,5.4,5.4,0,0.98,,,-99.99,Homeseer,2013-07-17 07:06:00,
2013-07-17 03:16:00,0.0,0.0,0.00,ESE,112,2.7,4.7,0,0.98,,,-99.99,Homeseer,2013-07-17 07:16:00,
2013-07-17 03:26:00,0.0,0.0,0.00,SE,135,4.3,4.3,0,0.98,,,-99.99,Homeseer,2013-07-17 07:26:00,
2013-07-17 03:36:00,0.0,0.0,0.00,SE,135,3.1,3.1,0,0.03,,,-99.99,Homeseer,2013-07-17 07:36:00,
2013-07-17 03:46:00,0.0,0.0,0.00,SE,135,4.9,4.9,0,0.03,,,-99.99,Homeseer,2013-07-17 07:46:00,
2013-07-17 03:56:00,0.0,0.0,0.00,South,180,6.7,6.7,0,0.03,,,-99.99,Homeseer,2013-07-17 07:56:00,
2013-07-17 04:06:00,0.0,0.0,0.00,North,0,2.2,2.7,0,0.03,,,-99.99,Homeseer,2013-07-17 08:06:00,
2013-07-17 04:16:00,0.0,0.0,0.00,ESE,112,6.0,6.0,0,0.03,,,-99.99,Homeseer,2013-07-17 08:16:00,
2013-07-17 04:26:00,0.0,0.0,0.00,SE,135,4.3,4.9,0,0.03,,,-99.99,Homeseer,2013-07-17 08:26:00,
2013-07-17 04:36:00,0.0,0.0,0.00,ESE,112,4.7,4.7,0,0.03,,,-99.99,Homeseer,2013-07-17 08:36:00,
2013-07-17 04:46:00,0.0,0.0,0.00,SSE,157,4.5,4.5,0,0.03,,,-99.99,Homeseer,2013-07-17 08:46:00,
2013-07-17 04:56:00,0.0,0.0,0.00,ESE,112,3.6,6.5,0,0.03,,,-99.99,Homeseer,2013-07-17 08:56:00,
2013-07-17 05:06:00,0.0,0.0,0.00,WSW,247,6.9,6.9,0,0.03,,,-99.99,Homeseer,2013-07-17 09:06:00,
2013-07-17 05:16:00,0.0,0.0,0.00,SSE,157,4.9,6.3,0,0.03,,,-99.99,Homeseer,2013-07-17 09:16:00,
2013-07-17 05:26:00,0.0,0.0,0.00,SSE,157,6.0,6.0,0,0.03,,,-99.99,Homeseer,2013-07-17 09:26:00,
2013-07-17 05:36:00,0.0,0.0,0.00,SE,135,4.3,4.3,0,0.03,,,-99.99,Homeseer,2013-07-17 09:36:00,
2013-07-17 05:46:00,0.0,0.0,0.00,ESE,112,3.6,6.5,0,0.00,,,-99.99,Homeseer,2013-07-17 09:46:00,
2013-07-17 05:56:00,0.0,0.0,0.00,SE,135,6.9,6.9,0,0.00,,,-99.99,Homeseer,2013-07-17 09:56:00,
2013-07-17 06:06:00,0.0,0.0,0.00,SSE,157,5.6,7.4,0,0.00,,,-99.99,Homeseer,2013-07-17 10:06:00,
2013-07-17 06:16:00,0.0,0.0,0.00,East,90,3.8,7.4,0,0.00,,,-99.99,Homeseer,2013-07-17 10:16:00,
2013-07-17 06:26:00,77.9,74.6,0.00,SE,135,6.0,6.0,87,0.00,,,-99.99,Homeseer,2013-07-17 10:26:00,
2013-07-17 06:36:00,78.1,74.5,0.00,SSE,157,7.2,7.2,86,0.00,,,-99.99,Homeseer,2013-07-17 10:36:00,
2013-07-17 06:46:00,78.6,74.2,0.00,SSE,157,4.7,4.7,83,0.00,,,-99.99,Homeseer,2013-07-17 10:46:00,
2013-07-17 06:56:00,78.6,74.2,0.00,ESE,112,6.3,8.7,83,0.00,,,-99.99,Homeseer,2013-07-17 10:56:00,
2013-07-17 07:06:00,78.6,74.2,0.00,North,0,4.5,4.5,83,0.00,,,-99.99,Homeseer,2013-07-17 11:06:00,
2013-07-17 07:16:00,78.6,74.2,0.00,ESE,112,5.6,5.6,83,0.00,,,-99.99,Homeseer,2013-07-17 11:16:00,
2013-07-17 07:26:00,78.6,74.2,0.00,SSE,157,6.0,6.0,83,0.00,,,-99.99,Homeseer,2013-07-17 11:26:00,
2013-07-17 07:36:00,77.9,72.9,0.00,South,180,4.0,4.9,81,0.00,,,-99.99,Homeseer,2013-07-17 11:36:00,
2013-07-17 07:46:00,77.9,72.9,0.00,North,0,3.6,3.6,81,0.00,,,-99.99,Homeseer,2013-07-17 11:46:00,
2013-07-17 07:56:00,77.9,72.9,0.00,South,180,4.0,4.7,81,0.00,,,-99.99,Homeseer,2013-07-17 11:56:00,
2013-07-17 08:06:00,77.9,72.9,0.00,ESE,112,3.4,4.9,81,0.00,,,-99.99,Homeseer,2013-07-17 12:06:00,
2013-07-17 08:16:00,77.9,72.9,0.00,North,0,1.3,2.7,81,0.07,,,-99.99,Homeseer,2013-07-17 12:16:00,
2013-07-17 08:26:00,77.9,72.9,0.00,SSE,157,0.0,0.0,81,0.07,,,-99.99,Homeseer,2013-07-17 12:26:00,
2013-07-17 08:36:00,0.0,0.0,0.00,NNE,22,0.9,2.7,0,0.07,,,-99.99,Homeseer,2013-07-17 12:36:00,
2013-07-17 08:46:00,0.0,0.0,0.00,WNW,297,0.9,1.6,0,0.07,,,-99.99,Homeseer,2013-07-17 12:46:00,
2013-07-17 08:56:00,0.0,0.0,0.00,WNW,297,0.9,0.9,0,0.07,,,-99.99,Homeseer,2013-07-17 12:56:00,
2013-07-17 09:06:00,0.0,0.0,0.00,NE,45,2.0,3.8,0,0.07,,,-99.99,Homeseer,2013-07-17 13:06:00,
2013-07-17 09:16:00,0.0,0.0,0.00,SE,135,0.0,0.0,0,0.07,,,-99.99,Homeseer,2013-07-17 13:16:00,
2013-07-17 09:26:00,0.0,0.0,0.00,WSW,247,0.9,0.9,0,0.07,,,-99.99,Homeseer,2013-07-17 13:26:00,
2013-07-17 09:36:00,0.0,0.0,0.00,North,0,2.5,2.5,0,2.59,,,-99.99,Homeseer,2013-07-17 13:36:00,
2013-07-17 09:46:00,0.0,0.0,0.00,North,0,0.0,0.0,0,0.78,,,-99.99,Homeseer,2013-07-17 13:46:00,
2013-07-17 09:56:00,0.0,0.0,0.00,North,0,0.9,0.9,0,0.78,,,-99.99,Homeseer,2013-07-17 13:56:00,
2013-07-17 10:06:00,0.0,0.0,0.00,North,0,1.3,1.3,0,0.78,,,-99.99,Homeseer,2013-07-17 14:06:00,
2013-07-17 10:16:00,0.0,0.0,0.00,SSE,157,3.6,6.3,0,0.19,,,-99.99,Homeseer,2013-07-17 14:16:00,
2013-07-17 10:26:00,0.0,0.0,0.00,South,180,7.2,7.2,0,0.51,,,-99.99,Homeseer,2013-07-17 14:26:00,
2013-07-17 10:36:00,0.0,0.0,0.00,South,180,1.3,1.3,0,0.86,,,-99.99,Homeseer,2013-07-17 14:36:00,
2013-07-17 10:46:00,0.0,0.0,0.00,SSE,157,2.5,2.5,0,0.47,,,-99.99,Homeseer,2013-07-17 14:46:00,
2013-07-17 10:56:00,0.0,0.0,0.00,North,0,1.3,1.3,0,0.31,,,-99.99,Homeseer,2013-07-17 14:56:00,
2013-07-17 11:06:00,0.0,0.0,0.00,North,0,1.6,1.6,0,0.31,,,-99.99,Homeseer,2013-07-17 15:06:00,
2013-07-17 11:16:00,0.0,0.0,0.00,North,0,3.8,3.8,0,0.19,,,-99.99,Homeseer,2013-07-17 15:16:00,
2013-07-17 11:26:00,0.0,0.0,0.00,SSE,157,2.9,2.9,0,0.15,,,-99.99,Homeseer,2013-07-17 15:26:00,
2013-07-17 11:36:00,0.0,0.0,0.00,North,0,4.3,4.3,0,0.74,,,-99.99,Homeseer,2013-07-17 15:36:00,
2013-07-17 11:46:00,0.0,0.0,0.00,North,0,4.0,4.3,0,1.41,,,-99.99,Homeseer,2013-07-17 15:46:00,
2013-07-17 11:56:00,0.0,0.0,0.00,SSE,157,4.3,4.3,0,1.77,,,-99.99,Homeseer,2013-07-17 15:56:00,
2013-07-17 12:06:00,0.0,0.0,0.00,North,0,2.0,7.4,0,0.70,,,-99.99,Homeseer,2013-07-17 16:06:00,
2013-07-17 12:16:00,0.0,0.0,0.00,South,180,3.8,5.4,0,0.39,,,-99.99,Homeseer,2013-07-17 16:16:00,
2013-07-17 12:26:00,0.0,0.0,0.00,SSE,157,5.6,10.3,0,0.23,,,-99.99,Homeseer,2013-07-17 16:26:00,
2013-07-17 12:36:00,0.0,0.0,0.00,SSE,157,4.3,4.3,0,0.23,,,-99.99,Homeseer,2013-07-17 16:36:00,
2013-07-17 12:46:00,0.0,0.0,0.00,North,0,2.9,4.0,0,0.15,,,-99.99,Homeseer,2013-07-17 16:46:00,
2013-07-17 12:56:00,0.0,0.0,0.00,SE,135,3.8,3.8,0,0.15,,,-99.99,Homeseer,2013-07-17 16:56:00,
2013-07-17 13:06:00,0.0,0.0,0.00,SSE,157,2.9,4.3,0,0.15,,,-99.99,Homeseer,2013-07-17 17:06:00,
2013-07-17 13:16:00,0.0,0.0,0.00,North,0,2.0,2.0,0,0.19,,,-99.99,Homeseer,2013-07-17 17:16:00,
2013-07-17 13:26:00,0.0,0.0,0.00,SSE,157,1.6,2.5,0,0.19,,,-99.99,Homeseer,2013-07-17 17:26:00,
2013-07-17 13:36:00,0.0,0.0,0.00,North,0,2.7,2.7,0,0.15,,,-99.99,Homeseer,2013-07-17 17:36:00,
2013-07-17 13:46:00,0.0,0.0,0.00,ESE,112,1.6,1.6,0,0.15,,,-99.99,Homeseer,2013-07-17 17:46:00,
2013-07-17 13:56:00,0.0,0.0,0.00,North,0,4.0,4.0,0,0.15,,,-99.99,Homeseer,2013-07-17 17:56:00,
2013-07-17 14:06:00,0.0,0.0,0.00,South,180,2.0,2.7,0,0.15,,,-99.99,Homeseer,2013-07-17 18:06:00,
2013-07-17 14:16:00,0.0,0.0,0.00,South,180,1.1,0.0,0,0.15,,,-99.99,Homeseer,2013-07-17 18:16:00,
2013-07-17 14:26:00,0.0,0.0,0.00,ESE,112,2.9,2.9,0,0.15,,,-99.99,Homeseer,2013-07-17 18:26:00,
2013-07-17 14:36:00,0.0,0.0,0.00,North,0,2.0,2.0,0,0.15,,,-99.99,Homeseer,2013-07-17 18:36:00,
2013-07-17 14:46:00,0.0,0.0,0.00,North,0,1.1,2.9,0,0.15,,,-99.99,Homeseer,2013-07-17 18:46:00,
2013-07-17 14:56:00,0.0,0.0,0.00,ESE,112,3.4,4.3,0,0.15,,,-99.99,Homeseer,2013-07-17 18:56:00,
2013-07-17 15:06:00,0.0,0.0,0.00,ESE,112,2.7,3.1,0,0.15,,,-99.99,Homeseer,2013-07-17 19:06:00,
2013-07-17 15:16:00,0.0,0.0,0.00,ESE,112,3.4,6.3,0,0.15,,,-99.99,Homeseer,2013-07-17 19:16:00,
2013-07-17 15:26:00,0.0,0.0,0.00,ESE,112,3.8,3.8,0,0.15,,,-99.99,Homeseer,2013-07-17 19:26:00,
2013-07-17 15:36:00,0.0,0.0,0.00,SE,135,4.9,4.9,0,0.00,,,-99.99,Homeseer,2013-07-17 19:36:00,
2013-07-17 15:46:00,0.0,0.0,0.00,ESE,112,3.4,4.3,0,0.00,,,-99.99,Homeseer,2013-07-17 19:46:00,
2013-07-17 15:56:00,0.0,0.0,0.00,ENE,67,3.6,3.6,0,0.00,,,-99.99,Homeseer,2013-07-17 19:56:00,
2013-07-17 16:06:00,0.0,0.0,0.00,ENE,67,0.0,0.0,0,0.00,,,-99.99,Homeseer,2013-07-17 20:06:00,
2013-07-17 16:16:00,0.0,0.0,0.00,SW,225,3.8,4.0,0,0.00,,,-99.99,Homeseer,2013-07-17 20:16:00,
2013-07-17 16:26:00,0.0,0.0,0.00,SSE,157,3.4,3.4,0,0.00,,,-99.99,Homeseer,2013-07-17 20:26:00,
2013-07-17 16:36:00,0.0,0.0,0.00,North,0,0.0,0.0,0,0.00,,,-99.99,Homeseer,2013-07-17 20:36:00,
2013-07-17 16:46:00,0.0,0.0,0.00,ESE,112,0.9,0.9,0,0.00,,,-99.99,Homeseer,2013-07-17 20:46:00,
2013-07-17 16:56:00,0.0,0.0,0.00,ESE,112,2.7,3.4,0,0.07,,,-99.99,Homeseer,2013-07-17 20:56:00,
2013-07-17 17:06:00,0.0,0.0,0.00,WNW,297,0.0,0.0,0,0.39,,,-99.99,Homeseer,2013-07-17 21:06:00,
2013-07-17 17:16:00,0.0,0.0,0.00,ESE,112,7.4,7.4,0,0.39,,,-99.99,Homeseer,2013-07-17 21:16:00,
2013-07-17 17:26:00,0.0,0.0,0.00,SE,135,6.7,6.7,0,0.39,,,-99.99,Homeseer,2013-07-17 21:26:00,
2013-07-17 17:36:00,0.0,0.0,0.00,SSE,157,4.7,4.7,0,0.39,,,-99.99,Homeseer,2013-07-17 21:36:00,
2013-07-17 17:46:00,0.0,0.0,0.00,SSE,157,4.7,4.7,0,0.39,,,-99.99,Homeseer,2013-07-17 21:46:00,
2013-07-17 17:56:00,0.0,0.0,0.00,ESE,112,2.7,5.6,0,0.39,,,-99.99,Homeseer,2013-07-17 21:56:00,
2013-07-17 18:06:00,0.0,0.0,0.00,ESE,112,4.3,4.9,0,0.39,,,-99.99,Homeseer,2013-07-17 22:06:00,
2013-07-17 18:16:00,0.0,0.0,0.00,ESE,112,6.0,8.1,0,0.39,,,-99.99,Homeseer,2013-07-17 22:16:00,
2013-07-17 18:26:00,0.0,0.0,0.00,North,0,3.6,3.6,0,0.39,,,-99.99,Homeseer,2013-07-17 22:26:00,
2013-07-17 18:36:00,0.0,0.0,0.00,SSE,157,3.8,3.8,0,0.39,,,-99.99,Homeseer,2013-07-17 22:36:00,
2013-07-17 18:46:00,0.0,0.0,0.00,South,180,3.8,3.8,0,0.39,,,-99.99,Homeseer,2013-07-17 22:46:00,
2013-07-17 18:56:00,0.0,0.0,0.00,North,0,3.1,3.1,0,0.39,,,-99.99,Homeseer,2013-07-17 22:56:00,
2013-07-17 19:06:00,0.0,0.0,0.00,SSE,157,2.9,4.0,0,0.39,,,-99.99,Homeseer,2013-07-17 23:06:00,
2013-07-17 19:16:00,0.0,0.0,0.00,SSE,157,3.6,6.5,0,0.00,,,-99.99,Homeseer,2013-07-17 23:16:00,
2013-07-17 19:26:00,0.0,0.0,0.00,ESE,112,2.7,2.7,0,0.00,,,-99.99,Homeseer,2013-07-17 23:26:00,
2013-07-17 19:36:00,0.0,0.0,0.00,ESE,112,4.0,4.0,0,0.00,,,-99.99,Homeseer,2013-07-17 23:36:00,
2013-07-17 19:46:00,0.0,0.0,0.00,South,180,5.8,5.8,0,0.00,,,-99.99,Homeseer,2013-07-17 23:46:00,
2013-07-17 19:56:00,0.0,0.0,0.00,South,180,4.5,4.5,0,0.00,,,-99.99,Homeseer,2013-07-17 23:56:00,
2013-07-17 20:06:00,0.0,0.0,0.00,SE,135,2.9,6.0,0,0.00,,,-99.99,Homeseer,2013-07-18 00:06:00,
2013-07-17 20:16:00,0.0,0.0,0.00,ESE,112,2.2,2.2,0,0.00,,,-99.99,Homeseer,2013-07-18 00:16:00,
2013-07-17 20:26:00,0.0,0.0,0.00,SSE,157,2.5,3.1,0,0.00,,,-99.99,Homeseer,2013-07-18 00:26:00,
2013-07-17 20:36:00,0.0,0.0,0.00,SSE,157,2.7,4.9,0,0.00,,,-99.99,Homeseer,2013-07-18 00:36:00,
2013-07-17 20:46:00,0.0,0.0,0.00,ESE,112,3.4,4.9,0,0.00,,,-99.99,Homeseer,2013-07-18 00:46:00,
2013-07-17 20:56:00,0.0,0.0,0.00,South,180,1.3,0.0,0,0.00,,,-99.99,Homeseer,2013-07-18 00:56:00,
2013-07-17 21:06:00,0.0,0.0,0.00,WSW,247,3.1,3.1,0,0.00,,,-99.99,Homeseer,2013-07-18 01:06:00,
2013-07-17 21:16:00,0.0,0.0,0.00,WSW,247,0.0,0.0,0,0.00,,,-99.99,Homeseer,2013-07-18 01:16:00,
2013-07-17 21:26:00,0.0,0.0,0.00,WSW,247,0.0,0.0,0,0.00,,,-99.99,Homeseer,2013-07-18 01:26:00,
2013-07-17 21:36:00,0.0,0.0,0.00,WNW,297,0.0,0.9,0,0.00,,,-99.99,Homeseer,2013-07-18 01:36:00,
2013-07-17 21:46:00,0.0,0.0,0.00,WSW,247,0.0,0.0,0,0.00,,,-99.99,Homeseer,2013-07-18 01:46:00,
2013-07-17 21:56:00,0.0,0.0,0.00,WSW,247,0.0,0.0,0,0.00,,,-99.99,Homeseer,2013-07-18 01:56:00,
2013-07-17 22:06:00,0.0,0.0,0.00,WSW,247,0.0,0.0,0,0.00,,,-99.99,Homeseer,2013-07-18 02:06:00,
2013-07-17 22:16:00,76.5,76.0,0.00,WSW,247,0.0,0.0,98,0.00,,,-99.99,Homeseer,2013-07-18 02:16:00,
2013-07-17 22:26:00,76.5,76.0,0.00,WSW,247,0.0,0.0,98,0.00,,,-99.99,Homeseer,2013-07-18 02:26:00,
2013-07-17 22:36:00,76.5,76.0,0.00,WSW,247,0.0,0.0,98,0.00,,,-99.99,Homeseer,2013-07-18 02:36:00,
2013-07-17 22:46:00,76.5,76.0,0.00,WSW,247,1.1,0.0,98,0.00,,,-99.99,Homeseer,2013-07-18 02:46:00,
2013-07-17 22:56:00,76.5,76.0,0.00,WSW,247,0.0,0.0,98,0.00,,,-99.99,Homeseer,2013-07-18 02:56:00,
2013-07-17 23:06:00,76.1,75.6,0.00,WSW,247,0.0,0.0,98,0.00,,,-99.99,Homeseer,2013-07-18 03:06:00,
2013-07-17 23:16:00,76.1,75.6,0.00,WSW,247,0.0,0.0,98,0.00,,,-99.99,Homeseer,2013-07-18 03:16:00,
2013-07-17 23:26:00,76.1,75.6,0.00,WSW,247,0.0,0.0,98,0.00,,,-99.99,Homeseer,2013-07-18 03:26:00,
2013-07-17 23:36:00,76.1,75.6,0.00,WSW,247,0.0,0.0,98,0.00,,,-99.99,Homeseer,2013-07-18 03:36:00,
2013-07-17 23:46:00,76.1,75.6,0.00,SW,225,0.0,0.0,98,0.00,,,-99.99,Homeseer,2013-07-18 03:46:00,
2013-07-17 23:56:00,76.3,75.8,0.00,South,180,3.8,3.8,98,0.00,,,-99.99,Homeseer,2013-07-18 03:56:00,